Airfield :
LOGIN :

Register | Disclaimer

   EN    FR    IT 

 










Legend :    VFR   Marginal VFR   IFR   Intensive IFR   Very Intensive IFR
Visi :
Ceiling :
>= 8 km
>= 3000ft
5 to 8 km
1000 to 3000 ft
1500m to 5 km
500 to 1000 ft
800 to 1500m
200 to 500 ft
< 800m
< 200 ft
Symbols :   Thunderstorms  Fog  Heavy snow  Heavy precipitations  Wind > 20 kt
SIGMETs :     Misc.  Thunderstorms  Icing  Turbulence  Mountain Waves  Volcanic Ashes







- Airport Elevation : 274 ft
- IATA code : PUY


LDPL - Pula

CURRENT METAR :
  • 252000Z 07018KT CAVOK 13/08 Q1009 BECMG TL2200 06020G30KT

EXPIRED METARs :
  • 251930Z 07010KT CAVOK 12/09 Q1008 BECMG 06020G30KT
  • 251900Z 07008KT CAVOK 11/09 Q1008 BECMG 06020G30KT
  • 251830Z 08007KT CAVOK 10/08 Q1008 NOSIG
  • 251800Z 09007KT CAVOK 10/09 Q1008 NOSIG
  • 251730Z 10004KT CAVOK 11/09 Q1008 NOSIG

TAF TAF LDPL
Valid from the 25 at 18:00 until the 26 at 18:00 UTC


251725Z 2518/2618 11007KT 9999 SCT030 TX13/2518Z TN05/2604Z
BECMG 2519/2521 06015KT
TEMPO 2519/2602 06020G30KT RA
PROB30
TEMPO 2519/2522 TSRA FEW025CB BKN030
PROB40
TEMPO 2602/2606 06015G25KT
No reported NOTAMs for that airfield.
2 SIGMETs reported for the Zagreb FIR (LDZO) :
 
Severe turbulence
LDZO SIGMET 7 VALID 252002/260000 LDZA
LDZO ZAGREB FIR SEV TURB FCST WI N4410 E01545 - N4409 E01329 - N4409 E01327 - N4408 E01326 - N4525 E01256 - N4537 E01431 - N4410 E01545 SFC/7000FT STNR INTSF=
Embedded thunderstorms
LDZO SIGMET 6 VALID 252000/252200 LDZA
LDZO ZAGREB FIR EMBD TS OBS WI N4541 E01445 - N4531 E01259 - N4415 E01259 - N4417 E01625 - N4541 E01445 TOP FL250 MOV ESE 10KT NC=



MET'MAP, your aeronautical weather chart ! - Copyright ORBIFLY December 2007 - Disclaimer

ORBIFLY MET'MAP TEAM :

Programming & Development : Alexandra Zaïnal
Concept & Development : Baudouin d'Aumeries
Co-Development & Prog : Marc-Olivier Méhu
Technical & hardware support : Manuel Goepfert

Contact : metmap@orbifly.com




SOURCES & CREDITS :

   NOAA